Weather at Divača Airport

Public forecast

Using degrees Celsius for public forecast. Weather courtesy of forecast.io.

Closest aviation weather report (METAR) to Divača Airport

Closest report is Portorož Airport, 20.6 nm (38.1 km) SW. Retrieved 2021/03/03 10:30 UTC (38 minutes ago):

LJPZ 031030Z 31005KT CAVOK 13/05 Q1032

Closest aviation forecast (TAF) to Divača Airport

Forecast is more than 12 hours old.

Closest forecast is Portorož Airport, 20.6 nm (38.1 km) SW. Retrieved 2020/09/27 12:21 UTC (5 months ago):

TAF TAF LJPZ 271100Z 2712/2821 30003KT 9999 FEW050 PROB30 TEMPO 2712/2718 -SHRA SCT040TCU BKN070 BECMG 2718/2720 06012G25KT RA